sensor_id;sensor_type;location;lat;lon;timestamp;P1;durP1;ratioP1;P2;durP2;ratioP2
50086;SDS011;35967;50.718;7.050;2023-02-15T00:07:53;47.80;;;22.33;;
50086;SDS011;35967;50.718;7.050;2023-02-15T00:17:58;45.07;;;20.70;;
50086;SDS011;35967;50.718;7.050;2023-02-15T00:28:01;51.90;;;22.93;;
50086;SDS011;35967;50.718;7.050;2023-02-15T00:38:05;50.43;;;22.97;;
50086;SDS011;35967;50.718;7.050;2023-02-15T00:48:08;48.40;;;22.30;;
50086;SDS011;35967;50.718;7.050;2023-02-15T00:58:13;49.63;;;22.47;;
50086;SDS011;35967;50.718;7.050;2023-02-15T01:08:17;51.07;;;23.30;;
50086;SDS011;35967;50.718;7.050;2023-02-15T01:18:21;45.43;;;20.60;;
50086;SDS011;35967;50.718;7.050;2023-02-15T01:28:26;52.63;;;24.40;;
50086;SDS011;35967;50.718;7.050;2023-02-15T01:38:32;44.87;;;21.10;;
50086;SDS011;35967;50.718;7.050;2023-02-15T01:48:39;51.43;;;23.87;;
50086;SDS011;35967;50.718;7.050;2023-02-15T01:58:54;47.93;;;22.83;;
50086;SDS011;35967;50.718;7.050;2023-02-15T02:08:59;45.80;;;21.87;;
50086;SDS011;35967;50.718;7.050;2023-02-15T02:19:32;52.23;;;25.17;;
50086;SDS011;35967;50.718;7.050;2023-02-15T02:29:59;52.30;;;21.83;;
50086;SDS011;35967;50.718;7.050;2023-02-15T02:40:20;52.47;;;21.77;;
50086;SDS011;35967;50.718;7.050;2023-02-15T02:50:29;49.57;;;22.03;;
50086;SDS011;35967;50.718;7.050;2023-02-15T03:00:35;52.40;;;22.70;;
50086;SDS011;35967;50.718;7.050;2023-02-15T03:10:42;48.27;;;21.63;;
50086;SDS011;35967;50.718;7.050;2023-02-15T03:20:48;51.27;;;22.67;;
50086;SDS011;35967;50.718;7.050;2023-02-15T03:30:55;46.70;;;20.90;;
50086;SDS011;35967;50.718;7.050;2023-02-15T03:41:04;51.57;;;22.43;;
50086;SDS011;35967;50.718;7.050;2023-02-15T03:51:14;49.00;;;21.77;;
50086;SDS011;35967;50.718;7.050;2023-02-15T04:01:38;49.77;;;22.37;;
50086;SDS011;35967;50.718;7.050;2023-02-15T04:12:00;50.57;;;22.37;;
50086;SDS011;35967;50.718;7.050;2023-02-15T04:22:05;48.37;;;22.03;;
50086;SDS011;35967;50.718;7.050;2023-02-15T04:32:25;47.50;;;21.40;;
50086;SDS011;35967;50.718;7.050;2023-02-15T04:42:29;47.27;;;19.70;;
50086;SDS011;35967;50.718;7.050;2023-02-15T04:52:33;50.50;;;21.20;;
50086;SDS011;35967;50.718;7.050;2023-02-15T05:02:37;50.37;;;21.93;;
50086;SDS011;35967;50.718;7.050;2023-02-15T05:12:42;41.87;;;20.13;;
50086;SDS011;35967;50.718;7.050;2023-02-15T05:22:46;46.83;;;20.80;;
50086;SDS011;35967;50.718;7.050;2023-02-15T05:32:49;45.97;;;20.00;;
50086;SDS011;35967;50.718;7.050;2023-02-15T05:42:53;43.63;;;20.07;;
50086;SDS011;35967;50.718;7.050;2023-02-15T05:52:56;47.03;;;21.07;;
50086;SDS011;35967;50.718;7.050;2023-02-15T06:03:00;48.03;;;21.57;;
50086;SDS011;35967;50.718;7.050;2023-02-15T06:13:04;50.80;;;22.17;;
50086;SDS011;35967;50.718;7.050;2023-02-15T06:23:08;45.50;;;19.40;;
50086;SDS011;35967;50.718;7.050;2023-02-15T06:33:11;42.63;;;20.37;;
50086;SDS011;35967;50.718;7.050;2023-02-15T06:43:34;41.87;;;18.50;;
50086;SDS011;35967;50.718;7.050;2023-02-15T06:53:37;41.10;;;17.77;;
50086;SDS011;35967;50.718;7.050;2023-02-15T07:03:44;42.20;;;18.70;;
50086;SDS011;35967;50.718;7.050;2023-02-15T07:13:47;37.00;;;15.90;;
50086;SDS011;35967;50.718;7.050;2023-02-15T07:23:55;35.33;;;17.20;;
50086;SDS011;35967;50.718;7.050;2023-02-15T07:33:59;35.10;;;16.57;;
50086;SDS011;35967;50.718;7.050;2023-02-15T07:44:04;40.00;;;17.17;;
50086;SDS011;35967;50.718;7.050;2023-02-15T07:54:29;38.73;;;16.93;;
50086;SDS011;35967;50.718;7.050;2023-02-15T08:04:34;38.30;;;15.97;;
50086;SDS011;35967;50.718;7.050;2023-02-15T08:14:38;37.70;;;16.27;;
50086;SDS011;35967;50.718;7.050;2023-02-15T08:24:43;36.20;;;15.60;;
50086;SDS011;35967;50.718;7.050;2023-02-15T08:34:46;31.90;;;15.57;;
50086;SDS011;35967;50.718;7.050;2023-02-15T08:44:52;35.70;;;15.90;;
50086;SDS011;35967;50.718;7.050;2023-02-15T08:54:55;29.97;;;14.30;;
50086;SDS011;35967;50.718;7.050;2023-02-15T09:05:00;28.73;;;14.23;;
50086;SDS011;35967;50.718;7.050;2023-02-15T09:15:03;30.10;;;13.90;;
50086;SDS011;35967;50.718;7.050;2023-02-15T09:25:08;27.47;;;14.20;;
50086;SDS011;35967;50.718;7.050;2023-02-15T09:35:11;27.07;;;14.20;;
50086;SDS011;35967;50.718;7.050;2023-02-15T09:45:39;25.63;;;11.97;;
50086;SDS011;35967;50.718;7.050;2023-02-15T09:55:53;25.87;;;12.97;;
50086;SDS011;35967;50.718;7.050;2023-02-15T10:06:11;26.00;;;12.23;;
50086;SDS011;35967;50.718;7.050;2023-02-15T10:16:33;23.40;;;11.83;;
50086;SDS011;35967;50.718;7.050;2023-02-15T10:26:48;24.53;;;12.60;;
50086;SDS011;35967;50.718;7.050;2023-02-15T10:36:59;26.10;;;12.30;;
50086;SDS011;35967;50.718;7.050;2023-02-15T10:47:20;19.63;;;10.60;;
50086;SDS011;35967;50.718;7.050;2023-02-15T10:57:48;22.90;;;11.67;;
50086;SDS011;35967;50.718;7.050;2023-02-15T11:08:02;22.33;;;11.83;;
50086;SDS011;35967;50.718;7.050;2023-02-15T11:18:11;18.70;;;10.50;;
50086;SDS011;35967;50.718;7.050;2023-02-15T11:28:22;22.17;;;11.20;;
50086;SDS011;35967;50.718;7.050;2023-02-15T11:38:34;18.93;;;10.03;;
50086;SDS011;35967;50.718;7.050;2023-02-15T11:48:42;20.77;;;10.07;;
50086;SDS011;35967;50.718;7.050;2023-02-15T11:58:46;19.70;;;10.20;;
50086;SDS011;35967;50.718;7.050;2023-02-15T12:09:01;18.33;;;10.27;;
50086;SDS011;35967;50.718;7.050;2023-02-15T12:19:18;17.70;;;10.40;;
50086;SDS011;35967;50.718;7.050;2023-02-15T12:29:34;19.10;;;9.63;;
50086;SDS011;35967;50.718;7.050;2023-02-15T12:39:51;17.87;;;9.23;;
50086;SDS011;35967;50.718;7.050;2023-02-15T12:50:08;20.90;;;11.03;;
50086;SDS011;35967;50.718;7.050;2023-02-15T13:00:26;18.77;;;10.10;;
50086;SDS011;35967;50.718;7.050;2023-02-15T13:10:35;18.90;;;9.60;;
50086;SDS011;35967;50.718;7.050;2023-02-15T13:20:39;21.70;;;9.60;;
50086;SDS011;35967;50.718;7.050;2023-02-15T13:30:45;16.40;;;9.90;;
50086;SDS011;35967;50.718;7.050;2023-02-15T13:40:52;19.63;;;9.27;;
50086;SDS011;35967;50.718;7.050;2023-02-15T13:51:02;17.57;;;9.33;;
50086;SDS011;35967;50.718;7.050;2023-02-15T14:01:17;15.70;;;8.95;;
50086;SDS011;35967;50.718;7.050;2023-02-15T14:11:34;18.77;;;9.83;;
50086;SDS011;35967;50.718;7.050;2023-02-15T14:21:46;15.40;;;8.83;;
50086;SDS011;35967;50.718;7.050;2023-02-15T14:31:53;22.57;;;9.17;;
50086;SDS011;35967;50.718;7.050;2023-02-15T14:42:04;18.77;;;10.17;;
50086;SDS011;35967;50.718;7.050;2023-02-15T14:52:17;18.73;;;10.13;;
50086;SDS011;35967;50.718;7.050;2023-02-15T15:02:21;14.93;;;9.03;;
50086;SDS011;35967;50.718;7.050;2023-02-15T15:12:39;19.67;;;10.60;;
50086;SDS011;35967;50.718;7.050;2023-02-15T15:22:44;18.50;;;10.23;;
50086;SDS011;35967;50.718;7.050;2023-02-15T15:32:51;22.67;;;10.43;;
50086;SDS011;35967;50.718;7.050;2023-02-15T15:53:56;23.87;;;10.47;;
50086;SDS011;35967;50.718;7.050;2023-02-15T16:03:59;20.33;;;10.70;;
50086;SDS011;35967;50.718;7.050;2023-02-15T16:14:04;21.90;;;10.97;;
50086;SDS011;35967;50.718;7.050;2023-02-15T16:24:21;20.80;;;10.13;;
50086;SDS011;35967;50.718;7.050;2023-02-15T16:34:32;20.53;;;9.93;;
50086;SDS011;35967;50.718;7.050;2023-02-15T16:44:40;18.87;;;9.87;;
50086;SDS011;35967;50.718;7.050;2023-02-15T16:54:45;26.40;;;9.67;;
50086;SDS011;35967;50.718;7.050;2023-02-15T17:05:01;18.17;;;9.27;;
50086;SDS011;35967;50.718;7.050;2023-02-15T17:16:21;20.40;;;10.30;;
50086;SDS011;35967;50.718;7.050;2023-02-15T17:37:02;26.70;;;11.20;;
50086;SDS011;35967;50.718;7.050;2023-02-15T17:47:08;23.17;;;10.80;;
50086;SDS011;35967;50.718;7.050;2023-02-15T17:57:14;25.67;;;11.60;;
50086;SDS011;35967;50.718;7.050;2023-02-15T18:07:20;24.03;;;11.40;;
50086;SDS011;35967;50.718;7.050;2023-02-15T18:17:42;23.23;;;11.27;;
50086;SDS011;35967;50.718;7.050;2023-02-15T18:27:49;24.43;;;11.77;;
50086;SDS011;35967;50.718;7.050;2023-02-15T18:37:54;24.47;;;12.10;;
50086;SDS011;35967;50.718;7.050;2023-02-15T18:48:03;26.47;;;13.00;;
50086;SDS011;35967;50.718;7.050;2023-02-15T18:58:31;38.03;;;14.40;;
50086;SDS011;35967;50.718;7.050;2023-02-15T19:08:35;37.20;;;15.53;;
50086;SDS011;35967;50.718;7.050;2023-02-15T19:18:41;29.07;;;13.50;;
50086;SDS011;35967;50.718;7.050;2023-02-15T19:28:46;26.93;;;13.53;;
50086;SDS011;35967;50.718;7.050;2023-02-15T19:38:50;28.13;;;13.67;;
50086;SDS011;35967;50.718;7.050;2023-02-15T19:48:57;47.27;;;20.20;;
50086;SDS011;35967;50.718;7.050;2023-02-15T19:59:00;31.93;;;14.97;;
50086;SDS011;35967;50.718;7.050;2023-02-15T20:09:05;33.90;;;15.43;;
50086;SDS011;35967;50.718;7.050;2023-02-15T20:19:10;28.57;;;14.60;;
50086;SDS011;35967;50.718;7.050;2023-02-15T20:29:16;31.50;;;16.20;;
50086;SDS011;35967;50.718;7.050;2023-02-15T20:39:20;39.57;;;19.20;;
50086;SDS011;35967;50.718;7.050;2023-02-15T20:49:26;32.53;;;16.20;;
50086;SDS011;35967;50.718;7.050;2023-02-15T20:59:48;39.40;;;17.60;;
50086;SDS011;35967;50.718;7.050;2023-02-15T21:09:54;39.03;;;18.77;;
50086;SDS011;35967;50.718;7.050;2023-02-15T21:19:57;33.47;;;16.93;;
50086;SDS011;35967;50.718;7.050;2023-02-15T21:30:02;35.07;;;17.17;;
50086;SDS011;35967;50.718;7.050;2023-02-15T21:40:13;32.77;;;16.67;;
50086;SDS011;35967;50.718;7.050;2023-02-15T21:50:21;34.60;;;18.00;;
50086;SDS011;35967;50.718;7.050;2023-02-15T22:00:44;36.80;;;17.40;;
50086;SDS011;35967;50.718;7.050;2023-02-15T22:11:10;35.73;;;17.50;;
50086;SDS011;35967;50.718;7.050;2023-02-15T22:21:14;42.00;;;19.90;;
50086;SDS011;35967;50.718;7.050;2023-02-15T22:31:21;46.07;;;21.03;;
50086;SDS011;35967;50.718;7.050;2023-02-15T22:41:25;41.80;;;20.33;;
50086;SDS011;35967;50.718;7.050;2023-02-15T22:51:32;39.07;;;19.57;;
50086;SDS011;35967;50.718;7.050;2023-02-15T23:01:36;37.83;;;18.47;;
50086;SDS011;35967;50.718;7.050;2023-02-15T23:11:43;38.67;;;19.00;;
50086;SDS011;35967;50.718;7.050;2023-02-15T23:21:47;40.57;;;19.37;;
50086;SDS011;35967;50.718;7.050;2023-02-15T23:31:56;40.63;;;19.60;;
50086;SDS011;35967;50.718;7.050;2023-02-15T23:42:01;38.27;;;18.13;;
50086;SDS011;35967;50.718;7.050;2023-02-15T23:52:32;38.13;;;18.07;;
